createdAt,value
2023-02-14T00:01:42.283Z,5.10
2023-02-14T00:04:12.272Z,5.10
2023-02-14T00:06:40.780Z,5.10
2023-02-14T00:09:11.828Z,5.10
2023-02-14T00:11:40.485Z,5.10
2023-02-14T00:14:25.698Z,5.10
2023-02-14T00:16:54.198Z,5.10
2023-02-14T00:19:25.007Z,5.00
2023-02-14T00:21:53.364Z,5.10
2023-02-14T00:24:23.935Z,5.00
2023-02-14T00:26:52.816Z,5.00
2023-02-14T00:29:23.606Z,5.00
2023-02-14T00:31:52.021Z,5.00
2023-02-14T00:34:20.622Z,5.00
2023-02-14T00:36:50.348Z,4.90
2023-02-14T00:39:19.191Z,4.90
2023-02-14T00:41:47.912Z,4.90
2023-02-14T00:44:16.279Z,4.90
2023-02-14T00:46:44.512Z,4.90
2023-02-14T00:49:12.927Z,4.90
2023-02-14T00:51:41.227Z,4.90
2023-02-14T00:54:10.856Z,4.80
2023-02-14T00:56:39.058Z,4.80
2023-02-14T00:59:07.177Z,4.80
2023-02-14T01:01:35.357Z,4.80
2023-02-14T01:04:03.426Z,4.70
2023-02-14T01:06:31.822Z,4.70
2023-02-14T01:08:59.955Z,4.70
2023-02-14T01:11:30.378Z,4.70
2023-02-14T01:13:59.300Z,4.70
2023-02-14T01:16:29.255Z,4.70
2023-02-14T01:18:59.544Z,4.60
2023-02-14T01:21:29.541Z,4.60
2023-02-14T01:23:59.992Z,4.60
2023-02-14T01:26:30.097Z,4.60
2023-02-14T01:28:58.632Z,4.60
2023-02-14T01:31:29.116Z,4.60
2023-02-14T01:33:58.660Z,4.60
2023-02-14T01:36:27.960Z,4.50
2023-02-14T01:38:58.633Z,4.50
2023-02-14T01:41:30.365Z,4.50
2023-02-14T01:44:02.339Z,4.50
2023-02-14T01:46:33.778Z,4.40
2023-02-14T01:49:07.120Z,4.50
2023-02-14T01:51:39.517Z,4.40
2023-02-14T01:54:09.640Z,4.40
2023-02-14T01:56:42.738Z,4.40
2023-02-14T01:59:15.964Z,4.40
2023-02-14T02:01:44.509Z,4.30
2023-02-14T02:04:16.243Z,4.40
2023-02-14T02:06:47.339Z,4.30
2023-02-14T02:09:19.154Z,4.30
2023-02-14T02:11:47.296Z,4.30
2023-02-14T02:14:19.887Z,4.30
2023-02-14T02:17:21.592Z,4.30
2023-02-14T02:20:33.715Z,4.30
2023-02-14T02:23:47.542Z,4.30
2023-02-14T02:26:51.523Z,4.20
2023-02-14T02:29:59.440Z,4.20
2023-02-14T02:32:57.090Z,4.20
2023-02-14T02:35:57.775Z,4.20
2023-02-14T02:38:45.097Z,4.20
2023-02-14T02:41:23.986Z,4.20
2023-02-14T02:43:58.183Z,4.20
2023-02-14T02:46:50.383Z,4.20
2023-02-14T02:49:49.145Z,4.10
2023-02-14T02:52:40.782Z,4.10
2023-02-14T02:55:20.508Z,4.10
2023-02-14T02:57:51.270Z,4.10
2023-02-14T03:00:22.742Z,4.10
2023-02-14T03:03:10.510Z,4.10
2023-02-14T03:05:39.028Z,4.00
2023-02-14T03:08:07.283Z,4.00
2023-02-14T03:10:39.261Z,4.00
2023-02-14T03:13:48.453Z,4.00
2023-02-14T03:16:42.390Z,4.00
2023-02-14T03:19:48.713Z,4.00
2023-02-14T03:22:28.351Z,4.00
2023-02-14T03:25:03.578Z,4.00
2023-02-14T03:27:39.061Z,3.90
2023-02-14T03:30:20.671Z,3.90
2023-02-14T03:32:55.885Z,3.90
2023-02-14T03:35:31.148Z,3.90
2023-02-14T03:38:07.057Z,3.90
2023-02-14T03:40:40.262Z,3.90
2023-02-14T03:43:14.083Z,3.90
2023-02-14T03:45:46.713Z,3.90
2023-02-14T03:48:17.409Z,3.90
2023-02-14T03:50:48.925Z,3.90
2023-02-14T03:53:24.301Z,3.80
2023-02-14T03:55:59.829Z,3.90
2023-02-14T03:58:34.639Z,3.80
2023-02-14T04:01:07.914Z,3.80
2023-02-14T04:03:40.269Z,3.80
2023-02-14T04:06:08.519Z,3.80
2023-02-14T04:08:36.646Z,3.80
2023-02-14T04:11:05.978Z,3.80
2023-02-14T04:13:36.897Z,3.80
2023-02-14T04:16:05.795Z,3.80
2023-02-14T04:18:51.423Z,3.70
2023-02-14T04:21:19.686Z,3.80
2023-02-14T04:23:47.722Z,3.70
2023-02-14T04:26:16.081Z,3.70
2023-02-14T04:28:45.931Z,3.70
2023-02-14T04:31:14.111Z,3.70
2023-02-14T04:33:42.316Z,3.70
2023-02-14T04:36:10.617Z,3.70
2023-02-14T04:38:38.767Z,3.70
2023-02-14T04:41:07.259Z,3.70
2023-02-14T04:43:35.219Z,3.70
2023-02-14T04:46:04.922Z,3.60
2023-02-14T04:48:32.873Z,3.60
2023-02-14T04:51:03.313Z,3.60
2023-02-14T04:53:31.574Z,3.60
2023-02-14T04:55:59.543Z,3.60
2023-02-14T04:58:27.720Z,3.60
2023-02-14T05:00:55.856Z,3.60
2023-02-14T05:03:25.816Z,3.60
2023-02-14T05:05:54.138Z,3.60
2023-02-14T05:08:22.514Z,3.60
2023-02-14T05:10:50.730Z,3.50
2023-02-14T05:13:19.103Z,3.50
2023-02-14T05:15:47.708Z,3.60
2023-02-14T05:18:16.014Z,3.60
2023-02-14T05:20:45.432Z,3.50
2023-02-14T05:23:14.083Z,3.50
2023-02-14T05:25:42.650Z,3.50
2023-02-14T05:28:10.851Z,3.50
2023-02-14T05:30:39.536Z,3.50
2023-02-14T05:33:08.243Z,3.50
2023-02-14T05:35:36.448Z,3.50
2023-02-14T05:38:06.078Z,3.50
2023-02-14T05:40:34.517Z,3.50
2023-02-14T05:43:02.947Z,3.50
2023-02-14T05:45:31.463Z,3.50
2023-02-14T05:47:59.522Z,3.50
2023-02-14T05:50:27.700Z,3.50
2023-02-14T05:52:56.183Z,3.50
2023-02-14T05:55:26.271Z,3.40
2023-02-14T05:57:54.493Z,3.50
2023-02-14T06:00:23.769Z,3.40
2023-02-14T06:02:52.185Z,3.40
2023-02-14T06:05:20.631Z,3.40
2023-02-14T06:07:51.247Z,3.40
2023-02-14T06:10:20.085Z,3.40
2023-02-14T06:12:51.310Z,3.40
2023-02-14T06:15:20.188Z,3.40
2023-02-14T06:17:52.962Z,3.40
2023-02-14T06:20:21.530Z,3.40
2023-02-14T06:22:50.067Z,3.40
2023-02-14T06:25:18.640Z,3.40
2023-02-14T06:27:49.264Z,3.30
2023-02-14T06:30:20.357Z,3.30
2023-02-14T06:32:48.653Z,3.40
2023-02-14T06:35:17.444Z,3.40
2023-02-14T06:37:45.784Z,3.30
2023-02-14T06:40:15.159Z,3.30
2023-02-14T06:42:44.416Z,3.30
2023-02-14T06:45:13.076Z,3.30
2023-02-14T06:47:42.891Z,3.30
2023-02-14T06:50:12.819Z,3.30
2023-02-14T06:52:42.061Z,3.30
2023-02-14T06:55:11.753Z,3.30
2023-02-14T06:57:40.206Z,3.30
2023-02-14T07:00:10.240Z,3.30
2023-02-14T07:02:38.848Z,3.30
2023-02-14T07:05:10.930Z,3.30
2023-02-14T07:07:39.281Z,3.30
2023-02-14T07:10:08.620Z,3.30
2023-02-14T07:12:39.486Z,3.30
2023-02-14T07:15:08.700Z,3.30
2023-02-14T07:17:37.397Z,3.30
2023-02-14T07:20:06.878Z,3.30
2023-02-14T07:22:37.156Z,3.30
2023-02-14T07:25:06.722Z,3.30
2023-02-14T07:27:35.013Z,3.30
2023-02-14T07:30:03.432Z,3.30
2023-02-14T07:32:32.012Z,3.30
2023-02-14T07:35:00.511Z,3.30
2023-02-14T07:37:28.583Z,3.30
2023-02-14T07:39:58.184Z,3.30
2023-02-14T07:42:26.503Z,3.30
2023-02-14T07:44:54.959Z,3.20
2023-02-14T07:47:24.974Z,3.20
2023-02-14T07:49:53.754Z,3.30
2023-02-14T07:52:22.062Z,3.20
2023-02-14T07:54:50.510Z,3.30
2023-02-14T07:57:20.329Z,3.20
2023-02-14T07:59:48.582Z,3.20
2023-02-14T08:02:20.810Z,3.20
2023-02-14T08:04:49.174Z,3.20
2023-02-14T08:07:17.730Z,3.20
2023-02-14T08:09:46.288Z,3.20
2023-02-14T08:12:45.968Z,3.20
2023-02-14T08:15:32.903Z,3.20
2023-02-14T08:18:01.080Z,3.20
2023-02-14T08:20:29.353Z,3.20
2023-02-14T08:22:58.058Z,3.20
2023-02-14T08:25:26.590Z,3.20
2023-02-14T08:27:56.529Z,3.30
2023-02-14T08:30:27.458Z,3.20
2023-02-14T08:32:55.741Z,3.20
2023-02-14T08:35:26.018Z,3.20
2023-02-14T08:37:54.608Z,3.20
2023-02-14T08:40:23.065Z,3.20
2023-02-14T08:42:51.430Z,3.20
2023-02-14T08:45:20.270Z,3.30
2023-02-14T08:47:50.379Z,3.20
2023-02-14T08:50:21.851Z,3.30
2023-02-14T08:52:50.228Z,3.20
2023-02-14T08:55:18.483Z,3.30
2023-02-14T08:57:47.042Z,3.30
2023-02-14T09:00:17.520Z,3.30
2023-02-14T09:02:45.799Z,3.30
2023-02-14T09:05:15.559Z,3.30
2023-02-14T09:07:43.991Z,3.30
2023-02-14T09:10:12.927Z,3.30
2023-02-14T09:12:41.971Z,3.30
2023-02-14T09:15:11.345Z,3.30
2023-02-14T09:17:42.078Z,3.30
2023-02-14T09:20:14.062Z,3.30
2023-02-14T09:22:44.137Z,3.30
2023-02-14T09:25:12.904Z,3.40
2023-02-14T09:27:41.599Z,3.40
2023-02-14T09:30:12.464Z,3.40
2023-02-14T09:32:41.087Z,3.40
2023-02-14T09:35:27.109Z,3.40
2023-02-14T09:37:56.858Z,3.40
2023-02-14T09:40:25.797Z,3.50
2023-02-14T09:43:01.950Z,3.40
2023-02-14T09:45:33.286Z,3.40
2023-02-14T09:48:07.438Z,3.50
2023-02-14T09:50:41.079Z,3.50
2023-02-14T09:53:22.846Z,3.50
2023-02-14T09:55:59.767Z,3.50
2023-02-14T09:58:54.407Z,3.50
2023-02-14T10:01:26.740Z,3.50
2023-02-14T10:04:19.440Z,3.50
2023-02-14T10:06:51.640Z,3.50
2023-02-14T10:09:43.863Z,3.60
2023-02-14T10:12:18.196Z,3.50
2023-02-14T10:14:47.257Z,3.60
2023-02-14T10:17:20.941Z,3.60
2023-02-14T10:19:55.794Z,3.60
2023-02-14T10:22:28.125Z,3.60
2023-02-14T10:25:03.521Z,3.60
2023-02-14T10:27:36.152Z,3.70
2023-02-14T10:30:13.278Z,3.60
2023-02-14T10:32:46.466Z,3.70
2023-02-14T10:35:23.150Z,3.70
2023-02-14T10:38:00.849Z,3.70
2023-02-14T10:40:49.138Z,3.70
2023-02-14T10:43:29.128Z,3.70
2023-02-14T10:46:07.788Z,3.80
2023-02-14T10:48:45.766Z,3.80
2023-02-14T10:51:19.163Z,3.80
2023-02-14T10:53:59.895Z,3.80
2023-02-14T10:56:35.861Z,3.80
2023-02-14T10:59:16.099Z,3.80
2023-02-14T11:01:44.967Z,3.80
2023-02-14T11:04:14.746Z,3.90
2023-02-14T11:06:42.673Z,3.90
2023-02-14T11:09:12.239Z,3.90
2023-02-14T11:11:46.632Z,3.90
2023-02-14T11:14:25.052Z,3.90
2023-02-14T11:16:55.073Z,3.90
2023-02-14T11:19:26.528Z,3.90
2023-02-14T11:21:56.416Z,4.00
2023-02-14T11:24:30.630Z,4.00
2023-02-14T11:27:03.178Z,4.00
2023-02-14T11:29:34.183Z,4.00
2023-02-14T11:32:10.237Z,4.00
2023-02-14T11:34:41.259Z,4.00
2023-02-14T11:37:26.821Z,4.00
2023-02-14T11:39:57.783Z,4.00
2023-02-14T11:42:42.730Z,4.10
2023-02-14T11:45:32.095Z,4.10
2023-02-14T11:48:22.062Z,4.10
2023-02-14T11:51:00.526Z,4.10
2023-02-14T11:53:38.747Z,4.10
2023-02-14T11:56:07.701Z,4.10
2023-02-14T11:58:40.476Z,4.10
2023-02-14T12:01:11.646Z,4.20
2023-02-14T12:03:45.318Z,4.20
2023-02-14T12:06:14.281Z,4.20
2023-02-14T12:08:43.116Z,4.20
2023-02-14T12:11:20.927Z,4.20
2023-02-14T12:13:55.754Z,4.30
2023-02-14T12:16:28.995Z,4.30
2023-02-14T12:19:01.713Z,4.30
2023-02-14T12:21:45.315Z,4.30
2023-02-14T12:24:21.420Z,4.30
2023-02-14T12:26:57.015Z,4.30
2023-02-14T12:29:31.635Z,4.40
2023-02-14T12:32:04.345Z,4.40
2023-02-14T12:34:33.849Z,4.40
2023-02-14T12:37:19.042Z,4.40
2023-02-14T12:40:04.573Z,4.40
2023-02-14T12:42:49.469Z,4.40
2023-02-14T12:45:27.103Z,4.50
2023-02-14T12:48:09.753Z,4.50
2023-02-14T12:50:48.150Z,4.50
2023-02-14T12:53:40.610Z,4.50
2023-02-14T12:56:15.112Z,4.50
2023-02-14T12:58:53.378Z,4.60
2023-02-14T13:02:01.494Z,4.60
2023-02-14T13:04:58.762Z,4.60
2023-02-14T13:07:44.733Z,4.60
2023-02-14T13:10:20.647Z,4.60
2023-02-14T13:12:54.565Z,4.60
2023-02-14T13:15:32.476Z,4.70
2023-02-14T13:18:14.688Z,4.70
2023-02-14T13:20:50.450Z,4.70
2023-02-14T13:23:23.941Z,4.70
2023-02-14T13:25:59.374Z,4.80
2023-02-14T13:28:29.088Z,4.80
2023-02-14T13:30:58.918Z,4.70
2023-02-14T13:33:35.053Z,4.80
2023-02-14T13:36:08.024Z,4.80
2023-02-14T13:38:44.620Z,4.80
2023-02-14T13:41:14.136Z,4.90
2023-02-14T13:43:55.481Z,4.90
2023-02-14T13:46:50.166Z,4.90
2023-02-14T13:49:32.059Z,4.90
2023-02-14T13:52:03.889Z,4.90
2023-02-14T13:54:43.339Z,4.90
2023-02-14T13:57:31.705Z,4.90
2023-02-14T14:00:39.232Z,4.90
2023-02-14T14:03:13.354Z,5.00
2023-02-14T14:05:48.858Z,5.00
2023-02-14T14:08:54.316Z,5.00
2023-02-14T14:12:09.729Z,5.00
2023-02-14T14:14:39.750Z,5.00
2023-02-14T14:17:27.540Z,5.10
2023-02-14T14:19:58.172Z,5.10
2023-02-14T14:22:27.194Z,5.10
2023-02-14T14:25:00.710Z,5.10
2023-02-14T14:27:33.294Z,5.10
2023-02-14T14:30:03.955Z,5.10
2023-02-14T14:32:34.286Z,5.10
2023-02-14T14:35:06.490Z,5.20
2023-02-14T14:37:38.849Z,5.10
2023-02-14T14:40:09.812Z,5.20
2023-02-14T14:42:40.486Z,5.20
2023-02-14T14:45:20.879Z,5.20
2023-02-14T14:47:51.638Z,5.20
2023-02-14T14:50:24.592Z,5.20
2023-02-14T14:52:55.432Z,5.20
2023-02-14T14:55:26.658Z,5.20
2023-02-14T14:57:57.444Z,5.20
2023-02-14T15:00:33.576Z,5.20
2023-02-14T15:03:08.068Z,5.30
2023-02-14T15:05:40.948Z,5.20
2023-02-14T15:08:22.305Z,5.30
2023-02-14T15:10:56.357Z,5.30
2023-02-14T15:13:49.694Z,5.30
2023-02-14T15:16:20.320Z,5.30
2023-02-14T15:18:49.271Z,5.30
2023-02-14T15:21:19.691Z,5.30
2023-02-14T15:23:48.063Z,5.30
2023-02-14T15:26:24.417Z,5.30
2023-02-14T15:28:58.087Z,5.30
2023-02-14T15:31:30.650Z,5.30
2023-02-14T15:34:00.294Z,5.30
2023-02-14T15:36:31.579Z,5.30
2023-02-14T15:39:01.825Z,5.30
2023-02-14T15:41:30.171Z,5.30
2023-02-14T15:43:59.221Z,5.30
2023-02-14T15:46:33.735Z,5.30
2023-02-14T15:49:06.660Z,5.30
2023-02-14T15:51:36.699Z,5.40
2023-02-14T15:54:07.736Z,5.30
2023-02-14T15:56:41.808Z,5.30
2023-02-14T15:59:19.192Z,5.30
2023-02-14T16:01:53.343Z,5.30
2023-02-14T16:04:26.602Z,5.30
2023-02-14T16:07:22.470Z,5.30
2023-02-14T16:09:51.544Z,5.30
2023-02-14T16:12:31.813Z,5.30
2023-02-14T16:15:11.799Z,5.30
2023-02-14T16:17:42.308Z,5.30
2023-02-14T16:20:31.690Z,5.30
2023-02-14T16:23:22.460Z,5.30
2023-02-14T16:25:51.220Z,5.30
2023-02-14T16:28:19.693Z,5.30
2023-02-14T16:30:54.414Z,5.30
2023-02-14T16:33:28.255Z,5.30
2023-02-14T16:36:02.940Z,5.30
2023-02-14T16:38:36.621Z,5.30
2023-02-14T16:41:07.220Z,5.30
2023-02-14T16:43:35.320Z,5.30
2023-02-14T16:46:05.070Z,5.20
2023-02-14T16:48:33.093Z,5.30
2023-02-14T16:51:01.418Z,5.20
2023-02-14T16:53:29.636Z,5.20
2023-02-14T16:56:00.000Z,5.20
2023-02-14T16:58:33.479Z,5.20
2023-02-14T17:01:01.803Z,5.20
2023-02-14T17:03:32.185Z,5.20
2023-02-14T17:06:02.646Z,5.10
2023-02-14T17:08:32.472Z,5.10
2023-02-14T17:11:04.353Z,5.10
2023-02-14T17:13:34.600Z,5.10
2023-02-14T17:16:03.266Z,5.10
2023-02-14T17:18:33.370Z,5.10
2023-02-14T17:21:02.219Z,5.10
2023-02-14T17:23:30.812Z,5.00
2023-02-14T17:25:59.036Z,5.00
2023-02-14T17:28:28.843Z,5.00
2023-02-14T17:31:00.483Z,5.00
2023-02-14T17:33:46.119Z,5.00
2023-02-14T17:36:18.772Z,5.00
2023-02-14T17:38:46.839Z,5.00
2023-02-14T17:41:16.439Z,5.00
2023-02-14T17:43:48.400Z,5.00
2023-02-14T17:46:18.391Z,5.00
2023-02-14T17:48:47.141Z,5.00
2023-02-14T17:51:17.278Z,5.00
2023-02-14T17:53:45.346Z,4.90
2023-02-14T17:56:14.790Z,4.90
2023-02-14T17:58:42.782Z,4.90
2023-02-14T18:01:13.447Z,4.90
2023-02-14T18:03:41.917Z,4.90
2023-02-14T18:06:11.626Z,4.90
2023-02-14T18:08:41.829Z,4.90
2023-02-14T18:11:11.211Z,4.90
2023-02-14T18:13:40.202Z,4.90
2023-02-14T18:16:09.746Z,4.90
2023-02-14T18:18:39.685Z,4.80
2023-02-14T18:21:09.787Z,4.90
2023-02-14T18:23:38.320Z,4.90
2023-02-14T18:26:07.954Z,4.90
2023-02-14T18:28:36.418Z,4.90
2023-02-14T18:31:05.406Z,4.90
2023-02-14T18:33:33.892Z,4.90
2023-02-14T18:36:04.546Z,4.90
2023-02-14T18:38:32.429Z,4.80
2023-02-14T18:41:03.294Z,4.80
2023-02-14T18:43:31.411Z,4.80
2023-02-14T18:46:04.138Z,4.80
2023-02-14T18:48:32.551Z,4.80
2023-02-14T18:51:08.636Z,4.80
2023-02-14T18:53:37.122Z,4.80
2023-02-14T18:56:06.543Z,4.80
2023-02-14T18:58:34.827Z,4.80
2023-02-14T19:01:09.165Z,4.70
2023-02-14T19:03:37.541Z,4.80
2023-02-14T19:06:07.948Z,4.70
2023-02-14T19:08:38.575Z,4.70
2023-02-14T19:11:10.979Z,4.70
2023-02-14T19:13:38.758Z,4.70
2023-02-14T19:16:12.223Z,4.70
2023-02-14T19:18:40.590Z,4.70
2023-02-14T19:21:17.240Z,4.70
2023-02-14T19:23:46.862Z,4.70
2023-02-14T19:26:16.735Z,4.70
2023-02-14T19:28:45.838Z,4.70
2023-02-14T19:31:14.341Z,4.70
2023-02-14T19:33:46.475Z,4.60
2023-02-14T19:36:17.847Z,4.60
2023-02-14T19:38:48.292Z,4.60
2023-02-14T19:41:17.765Z,4.60
2023-02-14T19:43:46.534Z,4.60
2023-02-14T19:46:15.507Z,4.60
2023-02-14T19:48:44.572Z,4.60
2023-02-14T19:51:17.978Z,4.60
2023-02-14T19:53:48.057Z,4.50
2023-02-14T19:56:21.565Z,4.50
2023-02-14T19:58:50.456Z,4.50
2023-02-14T20:01:25.639Z,4.50
2023-02-14T20:03:54.168Z,4.50
2023-02-14T20:06:24.957Z,4.50
2023-02-14T20:08:54.103Z,4.50
2023-02-14T20:11:37.618Z,4.40
2023-02-14T20:14:07.265Z,4.50
2023-02-14T20:16:38.080Z,4.40
2023-02-14T20:19:12.437Z,4.40
2023-02-14T20:21:44.462Z,4.40
2023-02-14T20:24:14.873Z,4.40
2023-02-14T20:26:43.917Z,4.40
2023-02-14T20:29:12.800Z,4.40
2023-02-14T20:31:43.389Z,4.40
2023-02-14T20:34:12.587Z,4.30
2023-02-14T20:36:43.805Z,4.30
2023-02-14T20:39:14.600Z,4.30
2023-02-14T20:41:47.586Z,4.30
2023-02-14T20:44:20.007Z,4.30
2023-02-14T20:46:49.311Z,4.30
2023-02-14T20:49:17.999Z,4.30
2023-02-14T20:51:49.637Z,4.20
2023-02-14T20:54:18.729Z,4.30
2023-02-14T20:56:47.660Z,4.20
2023-02-14T20:59:15.988Z,4.20
2023-02-14T21:01:44.188Z,4.20
2023-02-14T21:04:14.159Z,4.20
2023-02-14T21:06:42.343Z,4.20
2023-02-14T21:09:11.912Z,4.20
2023-02-14T21:11:40.066Z,4.10
2023-02-14T21:14:08.093Z,4.10
2023-02-14T21:16:36.316Z,4.10
2023-02-14T21:19:04.787Z,4.10
2023-02-14T21:21:36.039Z,4.10
2023-02-14T21:24:06.353Z,4.10
2023-02-14T21:26:36.314Z,4.10
2023-02-14T21:29:04.926Z,4.10
2023-02-14T21:31:33.701Z,4.10
2023-02-14T21:34:03.478Z,4.00
2023-02-14T21:36:35.393Z,4.10
2023-02-14T21:39:04.429Z,4.00
2023-02-14T21:41:33.022Z,4.00
2023-02-14T21:44:03.488Z,4.00
2023-02-14T21:46:33.718Z,4.00
2023-02-14T21:49:21.435Z,4.00
2023-02-14T21:51:49.981Z,4.00
2023-02-14T21:54:18.495Z,4.00
2023-02-14T21:56:46.639Z,4.00
2023-02-14T21:59:16.189Z,4.00
2023-02-14T22:01:44.168Z,4.00
2023-02-14T22:04:13.326Z,4.00
2023-02-14T22:06:42.968Z,3.90
2023-02-14T22:09:12.242Z,3.90
2023-02-14T22:11:40.407Z,3.90
2023-02-14T22:14:08.557Z,3.90
2023-02-14T22:16:38.117Z,3.90
2023-02-14T22:19:06.847Z,3.80
2023-02-14T22:21:35.677Z,3.80
2023-02-14T22:24:03.616Z,3.80
2023-02-14T22:26:33.664Z,3.80
2023-02-14T22:29:03.547Z,3.80
2023-02-14T22:31:39.142Z,3.80
2023-02-14T22:34:08.209Z,3.80
2023-02-14T22:36:36.529Z,3.80
2023-02-14T22:39:04.784Z,3.80
2023-02-14T22:41:37.479Z,3.70
2023-02-14T22:44:06.066Z,3.80
2023-02-14T22:46:36.827Z,3.70
2023-02-14T22:49:07.540Z,3.70
2023-02-14T22:51:37.122Z,3.70
2023-02-14T22:54:07.361Z,3.70
2023-02-14T22:56:38.688Z,3.70
2023-02-14T22:59:08.839Z,3.70
2023-02-14T23:01:37.273Z,3.70
2023-02-14T23:04:06.916Z,3.70
2023-02-14T23:06:36.938Z,3.60
2023-02-14T23:09:07.091Z,3.60
2023-02-14T23:11:38.380Z,3.60
2023-02-14T23:14:24.821Z,3.60
2023-02-14T23:17:10.508Z,3.60
2023-02-14T23:19:58.458Z,3.60
2023-02-14T23:22:28.609Z,3.60
2023-02-14T23:24:58.602Z,3.60
2023-02-14T23:27:31.603Z,3.60
2023-02-14T23:29:59.665Z,3.60
2023-02-14T23:32:28.054Z,3.50
2023-02-14T23:34:58.999Z,3.50
2023-02-14T23:37:27.138Z,3.50
2023-02-14T23:39:55.524Z,3.50
2023-02-14T23:42:24.012Z,3.50
2023-02-14T23:44:52.445Z,3.50
2023-02-14T23:47:20.629Z,3.50
2023-02-14T23:49:48.525Z,3.50
2023-02-14T23:52:18.096Z,3.50
2023-02-14T23:54:46.281Z,3.50
2023-02-14T23:57:14.119Z,3.50
2023-02-14T23:59:42.159Z,3.50
